Time;durP1;ratioP1;P1;durP2;ratioP2;P2;SDS_P1;SDS_P2;PMS_P1;PMS_P2;Temp;Humidity;BMP_temperature;BMP_pressure;BME280_temperature;BME280_humidity;BME280_pressure;Samples;Min_cycle;Max_cycle;Signal;HPM_P1;HPM_P2
2021/05/31 00:01:42;;;;;;;5.57;5.18;;;18.90;99.90;;;;;;5070124;28;20261;-80
2021/05/31 00:04:10;;;;;;;6.40;5.40;;;18.90;99.90;;;;;;5070408;28;20232;-76
2021/05/31 00:06:42;;;;;;;5.15;4.65;;;18.90;99.90;;;;;;5070274;28;20202;-76
2021/05/31 00:09:08;;;;;;;4.93;4.53;;;18.90;99.90;;;;;;5070360;28;20202;-76
2021/05/31 00:11:35;;;;;;;7.53;5.03;;;18.90;99.90;;;;;;5069971;28;20580;-75
2021/05/31 00:14:02;;;;;;;5.97;4.75;;;18.90;99.90;;;;;;5070166;28;20287;-76
2021/05/31 00:16:28;;;;;;;5.00;4.53;;;18.90;99.90;;;;;;5070051;28;20210;-76
2021/05/31 00:18:54;;;;;;;5.18;4.20;;;18.90;99.90;;;;;;5070271;28;20251;-73
2021/05/31 00:21:22;;;;;;;4.57;4.18;;;18.80;99.90;;;;;;5070756;28;20214;-73
2021/05/31 00:23:49;;;;;;;4.60;4.20;;;18.70;99.90;;;;;;5070764;28;20269;-74
2021/05/31 00:26:17;;;;;;;5.78;4.72;;;18.60;99.90;;;;;;5069770;28;20647;-75
2021/05/31 00:28:44;;;;;;;6.05;4.68;;;18.70;99.90;;;;;;5069706;28;20214;-75
2021/05/31 00:31:11;;;;;;;5.55;5.05;;;18.60;99.90;;;;;;5069978;28;20229;-76
2021/05/31 00:33:38;;;;;;;5.43;4.95;;;18.70;99.90;;;;;;5069896;28;20236;-74
2021/05/31 00:36:05;;;;;;;5.80;5.30;;;18.80;99.90;;;;;;5070051;28;20207;-74
2021/05/31 00:38:33;;;;;;;5.90;5.40;;;18.70;99.90;;;;;;5069784;28;20232;-74
2021/05/31 00:41:01;;;;;;;5.60;4.88;;;18.60;99.90;;;;;;5069678;28;20210;-73
2021/05/31 00:43:33;;;;;;;4.60;4.20;;;18.70;99.90;;;;;;5072595;28;20257;-75
2021/05/31 00:45:59;;;;;;;5.43;4.93;;;18.70;99.90;;;;;;5073688;28;20217;-74
2021/05/31 00:48:27;;;;;;;3.95;3.65;;;18.70;99.90;;;;;;5072864;28;20587;-76
2021/05/31 00:50:54;;;;;;;5.25;4.05;;;18.70;99.90;;;;;;5073473;28;20205;-76
2021/05/31 00:53:21;;;;;;;5.18;4.00;;;18.60;99.90;;;;;;5073823;28;20210;-76
2021/05/31 00:55:48;;;;;;;3.90;3.47;;;18.70;99.90;;;;;;5073516;28;20206;-78
2021/05/31 00:58:15;;;;;;;5.05;4.55;;;18.60;99.90;;;;;;5073803;28;20210;-77
2021/05/31 01:00:43;;;;;;;4.68;4.28;;;18.50;99.90;;;;;;5072876;28;20242;-76
2021/05/31 01:03:10;;;;;;;4.88;4.47;;;18.40;99.90;;;;;;5073440;28;20213;-77
2021/05/31 01:05:37;;;;;;;4.38;3.90;;;18.40;99.90;;;;;;5072914;28;20237;-76
2021/05/31 01:08:07;;;;;;;4.50;4.10;;;18.30;99.90;;;;;;5073272;28;20670;-75
2021/05/31 01:10:44;;;;;;;5.97;3.80;;;18.30;99.90;;;;;;5065092;28;20206;-74
2021/05/31 01:13:18;;;;;;;4.72;4.25;;;18.20;99.90;;;;;;5091992;28;20212;-76
2021/05/31 01:15:48;;;;;;;4.43;4.03;;;18.20;99.90;;;;;;5092864;28;20673;-75
2021/05/31 01:18:19;;;;;;;4.10;3.67;;;18.10;99.90;;;;;;5093121;28;20770;-76
2021/05/31 01:21:15;;;;;;;4.93;4.47;;;18.10;99.90;;;;;;5092774;28;20205;-75
2021/05/31 01:23:46;;;;;;;7.80;4.40;;;18.00;99.90;;;;;;5093104;28;20220;-75
2021/05/31 01:26:16;;;;;;;4.90;4.50;;;18.00;99.90;;;;;;5092918;28;20217;-75
2021/05/31 01:29:00;;;;;;;4.30;3.90;;;17.90;99.90;;;;;;5092813;28;20205;-76
2021/05/31 01:31:37;;;;;;;4.97;3.28;;;18.00;99.90;;;;;;5092734;28;20202;-76
2021/05/31 01:34:06;;;;;;;4.25;3.85;;;18.00;99.90;;;;;;5092999;28;20208;-76
2021/05/31 01:36:36;;;;;;;4.47;4.07;;;18.00;99.90;;;;;;5092488;28;20207;-76
2021/05/31 01:39:04;;;;;;;5.00;3.90;;;18.00;99.90;;;;;;5092965;28;20691;-75
2021/05/31 01:41:31;;;;;;;5.35;4.90;;;18.00;99.90;;;;;;5092667;28;20206;-77
2021/05/31 01:44:00;;;;;;;5.75;4.55;;;18.00;99.90;;;;;;5092511;28;20232;-75
2021/05/31 01:46:27;;;;;;;4.32;3.92;;;18.00;99.90;;;;;;5092324;28;20213;-74
2021/05/31 01:48:56;;;;;;;5.10;4.60;;;18.00;99.90;;;;;;5093140;28;20201;-74
2021/05/31 01:51:23;;;;;;;4.55;4.15;;;18.00;99.90;;;;;;5092808;28;20205;-74
2021/05/31 01:53:52;;;;;;;3.80;3.50;;;17.90;99.90;;;;;;5092168;28;20259;-76
2021/05/31 01:56:19;;;;;;;4.28;3.75;;;17.90;99.90;;;;;;5092883;28;20685;-77
2021/05/31 01:58:46;;;;;;;4.57;4.18;;;17.90;99.90;;;;;;5091934;28;20684;-72
2021/05/31 02:01:14;;;;;;;4.90;3.97;;;17.80;99.90;;;;;;5092867;28;20232;-72
2021/05/31 02:03:41;;;;;;;4.38;3.42;;;17.80;99.90;;;;;;5092026;28;20202;-73
2021/05/31 02:06:10;;;;;;;5.45;4.03;;;17.70;99.90;;;;;;5092438;28;20208;-73
2021/05/31 02:08:36;;;;;;;4.05;3.58;;;17.70;99.90;;;;;;5092054;28;20218;-72
2021/05/31 02:11:13;;;;;;;5.40;3.92;;;17.70;99.90;;;;;;5092535;28;20205;-75
2021/05/31 02:13:41;;;;;;;4.95;4.43;;;17.70;99.90;;;;;;5091670;28;20710;-75
2021/05/31 02:16:19;;;;;;;5.20;3.90;;;17.70;99.90;;;;;;5092197;28;20244;-73
2021/05/31 02:18:50;;;;;;;7.82;7.13;;;17.70;99.90;;;;;;5091470;28;20296;-73
2021/05/31 02:21:19;;;;;;;7.78;7.10;;;17.70;99.90;;;;;;5092707;28;20262;-73
2021/05/31 02:23:45;;;;;;;9.27;8.48;;;17.60;99.90;;;;;;5091747;28;20202;-73
2021/05/31 02:26:15;;;;;;;13.18;11.88;;;17.60;99.90;;;;;;5091741;28;20213;-73
2021/05/31 02:28:43;;;;;;;13.48;12.30;;;17.60;99.90;;;;;;5091629;28;20292;-73
2021/05/31 02:31:10;;;;;;;11.23;9.93;;;17.50;99.90;;;;;;5091862;28;20205;-73
2021/05/31 02:33:38;;;;;;;7.38;6.60;;;17.50;99.90;;;;;;5091781;28;20217;-72
2021/05/31 02:36:05;;;;;;;21.98;19.98;;;17.50;99.90;;;;;;5091882;28;20197;-74
2021/05/31 02:38:33;;;;;;;34.35;31.13;;;17.40;99.90;;;;;;5091411;28;20205;-74
2021/05/31 02:41:00;;;;;;;39.70;35.90;;;17.40;99.90;;;;;;5069605;28;20207;-73
2021/05/31 02:43:26;;;;;;;38.22;34.92;;;17.40;99.90;;;;;;5091310;28;20209;-76
2021/05/31 02:45:53;;;;;;;30.83;28.02;;;17.30;99.90;;;;;;5089422;28;20805;-75
2021/05/31 02:48:23;;;;;;;6.28;5.68;;;17.30;99.90;;;;;;5091686;28;20261;-76
2021/05/31 02:50:51;;;;;;;6.00;5.40;;;17.30;99.90;;;;;;5092284;28;20229;-74
2021/05/31 02:53:17;;;;;;;4.00;3.67;;;17.30;99.90;;;;;;5091909;28;20197;-75
2021/05/31 02:55:44;;;;;;;6.38;4.18;;;17.40;99.90;;;;;;5090966;28;20278;-76
2021/05/31 02:58:12;;;;;;;4.18;3.78;;;17.40;99.90;;;;;;5091450;28;20205;-75
2021/05/31 03:00:39;;;;;;;8.80;5.90;;;17.30;99.90;;;;;;5091051;28;20232;-76
2021/05/31 03:03:05;;;;;;;5.28;3.60;;;17.30;99.90;;;;;;5079672;28;20277;-75
2021/05/31 03:05:32;;;;;;;4.63;3.92;;;17.30;99.90;;;;;;5084915;28;20721;-76
2021/05/31 03:08:00;;;;;;;4.90;3.45;;;17.30;99.90;;;;;;5079658;28;20366;-75
2021/05/31 03:10:27;;;;;;;4.18;3.78;;;17.30;99.90;;;;;;5084826;28;20273;-75
2021/05/31 03:12:55;;;;;;;3.97;3.60;;;17.30;99.90;;;;;;5081071;28;20201;-74
2021/05/31 03:15:21;;;;;;;4.03;3.72;;;17.20;99.90;;;;;;5084688;28;20285;-77
2021/05/31 03:17:50;;;;;;;4.78;4.18;;;17.20;99.90;;;;;;5072003;28;20297;-76
2021/05/31 03:20:17;;;;;;;4.82;4.40;;;17.20;99.90;;;;;;5085205;28;20217;-76
2021/05/31 03:22:44;;;;;;;3.25;2.97;;;17.00;99.90;;;;;;5089596;28;20205;-75
2021/05/31 03:25:13;;;;;;;4.63;3.53;;;17.00;99.90;;;;;;5081429;28;20233;-75
2021/05/31 03:27:40;;;;;;;3.45;3.15;;;17.00;99.90;;;;;;5087276;28;20206;-76
2021/05/31 03:30:09;;;;;;;6.15;3.10;;;17.00;99.90;;;;;;5081334;28;20594;-75
2021/05/31 03:32:36;;;;;;;5.65;3.47;;;17.00;99.90;;;;;;5087698;28;20201;-75
2021/05/31 03:35:04;;;;;;;3.45;3.15;;;17.00;99.90;;;;;;5087232;28;20213;-76
2021/05/31 03:37:31;;;;;;;4.43;3.08;;;17.10;99.90;;;;;;5084048;28;20202;-76
2021/05/31 03:39:57;;;;;;;3.35;3.05;;;17.20;99.90;;;;;;5088769;28;20578;-77
2021/05/31 03:42:25;;;;;;;4.32;3.08;;;17.40;99.90;;;;;;5087143;28;20201;-73
2021/05/31 03:44:52;;;;;;;3.25;2.63;;;17.40;99.90;;;;;;5076826;28;20221;-74
2021/05/31 03:47:18;;;;;;;4.13;2.70;;;17.40;99.90;;;;;;5089532;28;20594;-75
2021/05/31 03:49:45;;;;;;;3.97;2.97;;;17.40;99.90;;;;;;5086870;28;20202;-75
2021/05/31 03:52:11;;;;;;;3.28;2.97;;;17.50;99.90;;;;;;5089143;28;20213;-75
2021/05/31 03:54:38;;;;;;;3.50;2.53;;;17.40;99.90;;;;;;5086334;28;20201;-75
2021/05/31 03:57:05;;;;;;;4.18;2.60;;;17.50;99.90;;;;;;5088884;28;20580;-78
2021/05/31 03:59:33;;;;;;;2.58;2.38;;;17.60;99.90;;;;;;5086833;28;20209;-78
2021/05/31 04:02:01;;;;;;;2.15;2.05;;;17.70;99.90;;;;;;5089170;28;20262;-73
2021/05/31 04:04:30;;;;;;;2.88;2.65;;;17.70;99.90;;;;;;5087722;28;20313;-77
2021/05/31 04:12:25;;;;;;;3.72;2.50;;;17.60;99.90;;;;;;5088568;28;20635;-76
2021/05/31 04:14:52;;;;;;;2.97;2.67;;;17.60;99.90;;;;;;5087178;28;20251;-76
2021/05/31 04:17:19;;;;;;;4.32;2.92;;;17.50;99.90;;;;;;5090095;28;20216;-75
2021/05/31 04:19:45;;;;;;;3.20;2.17;;;17.50;99.90;;;;;;5092152;28;20661;-76
2021/05/31 04:22:12;;;;;;;2.97;2.45;;;17.40;99.90;;;;;;5094288;28;20209;-75
2021/05/31 04:24:38;;;;;;;3.50;2.92;;;17.40;99.90;;;;;;5094087;28;20233;-74
2021/05/31 04:27:05;;;;;;;2.83;2.47;;;17.40;99.90;;;;;;5094506;28;20212;-75
2021/05/31 04:29:32;;;;;;;4.10;3.13;;;17.40;99.90;;;;;;5093747;28;20208;-76
2021/05/31 04:32:00;;;;;;;2.70;2.50;;;17.40;99.90;;;;;;5094143;28;20209;-74
2021/05/31 04:34:26;;;;;;;2.25;2.15;;;17.40;99.90;;;;;;5093448;28;20212;-76
2021/05/31 04:36:53;;;;;;;3.83;2.17;;;17.40;99.90;;;;;;5094265;28;20204;-75
2021/05/31 04:39:19;;;;;;;3.90;2.15;;;17.40;99.90;;;;;;5094310;28;20205;-75
2021/05/31 04:41:46;;;;;;;3.67;2.47;;;17.40;99.90;;;;;;5094003;28;20201;-76
2021/05/31 04:44:12;;;;;;;3.58;2.50;;;17.40;99.90;;;;;;5093615;28;20238;-77
2021/05/31 04:46:39;;;;;;;2.78;2.53;;;17.40;99.90;;;;;;5093532;28;20677;-76
2021/05/31 04:49:07;;;;;;;2.85;2.65;;;17.40;99.90;;;;;;5094217;28;20251;-76
2021/05/31 04:51:34;;;;;;;3.45;3.05;;;17.40;99.90;;;;;;5093212;28;20220;-78
2021/05/31 04:54:01;;;;;;;2.67;2.47;;;17.30;99.90;;;;;;5093793;28;20216;-78
2021/05/31 04:56:28;;;;;;;4.10;3.15;;;17.40;99.90;;;;;;5093286;28;20585;-77
2021/05/31 04:58:54;;;;;;;3.10;2.58;;;17.50;99.90;;;;;;5093873;28;20198;-77
2021/05/31 05:01:21;;;;;;;2.97;2.78;;;17.50;99.90;;;;;;5093574;28;20205;-75
2021/05/31 05:03:48;;;;;;;3.15;2.85;;;17.60;99.90;;;;;;5093829;28;20550;-76
2021/05/31 05:06:16;;;;;;;2.97;2.78;;;17.60;99.90;;;;;;5093261;28;20240;-76
2021/05/31 05:08:43;;;;;;;4.22;3.15;;;17.60;99.90;;;;;;5079216;28;20254;-75
2021/05/31 05:11:10;;;;;;;4.63;3.60;;;17.70;99.90;;;;;;5091316;28;20205;-74
2021/05/31 05:13:37;;;;;;;4.05;2.55;;;17.80;99.90;;;;;;5077837;28;20212;-74
2021/05/31 05:16:04;;;;;;;4.80;2.88;;;17.90;99.90;;;;;;5093350;28;20209;-75
2021/05/31 05:18:30;;;;;;;3.15;2.80;;;18.00;99.90;;;;;;5083272;28;20213;-75
2021/05/31 05:20:58;;;;;;;3.47;2.85;;;18.10;99.90;;;;;;5093118;28;20642;-74
2021/05/31 05:23:26;;;;;;;4.72;3.50;;;18.10;99.90;;;;;;5092858;28;20742;-76
2021/05/31 05:25:53;;;;;;;2.65;2.45;;;18.20;99.90;;;;;;5093005;28;20225;-77
2021/05/31 05:28:19;;;;;;;3.25;2.92;;;18.20;99.90;;;;;;5092468;28;20205;-74
2021/05/31 05:30:49;;;;;;;5.28;3.45;;;18.30;99.90;;;;;;5080510;28;20198;-76
2021/05/31 05:33:16;;;;;;;3.15;2.95;;;18.30;99.90;;;;;;5085522;28;20232;-77
2021/05/31 05:35:45;;;;;;;8.38;2.88;;;18.30;99.90;;;;;;5090232;28;20680;-78
2021/05/31 05:38:29;;;;;;;3.35;3.03;;;18.40;99.90;;;;;;5093016;28;20209;-78
2021/05/31 05:41:13;;;;;;;5.72;2.95;;;18.30;99.90;;;;;;5092665;28;20770;-77
2021/05/31 05:43:57;;;;;;;3.40;2.95;;;18.40;99.90;;;;;;5092669;28;20209;-77
2021/05/31 05:46:35;;;;;;;4.80;2.95;;;18.50;99.90;;;;;;5092548;28;20208;-75
2021/05/31 05:49:01;;;;;;;7.78;3.72;;;18.60;99.90;;;;;;5076955;28;20213;-77
2021/05/31 05:51:28;;;;;;;3.80;2.80;;;18.60;99.90;;;;;;5060882;28;20209;-76
2021/05/31 05:53:59;;;;;;;3.17;2.90;;;18.60;99.90;;;;;;5078971;28;20232;-83
2021/05/31 05:56:27;;;;;;;5.35;3.95;;;18.60;99.90;;;;;;5089224;28;20292;-85
2021/05/31 05:58:54;;;;;;;4.40;4.00;;;18.60;99.90;;;;;;5092869;28;20669;-79
2021/05/31 06:01:21;;;;;;;6.60;3.75;;;18.60;99.90;;;;;;5066957;28;20207;-77
2021/05/31 06:03:51;;;;;;;6.85;3.35;;;18.50;99.90;;;;;;5059404;28;20322;-78
2021/05/31 06:06:18;;;;;;;4.05;2.65;;;18.60;99.90;;;;;;5058942;28;20234;-79
2021/05/31 06:08:44;;;;;;;4.28;2.97;;;18.60;99.90;;;;;;5092354;28;20205;-80
2021/05/31 06:11:11;;;;;;;2.85;2.65;;;18.70;99.90;;;;;;5088557;28;20205;-82
2021/05/31 06:13:41;;;;;;;3.45;3.13;;;18.80;99.90;;;;;;5091540;28;20205;-80
2021/05/31 06:16:08;;;;;;;4.03;3.13;;;18.90;99.90;;;;;;5073177;28;20268;-80
2021/05/31 06:18:34;;;;;;;2.47;2.28;;;19.00;99.90;;;;;;5084916;28;20209;-80
2021/05/31 06:21:00;;;;;;;2.25;2.05;;;19.10;99.90;;;;;;5086291;28;20311;-80
2021/05/31 06:23:27;;;;;;;4.07;3.15;;;19.10;99.90;;;;;;5076567;28;20211;-87
2021/05/31 06:25:54;;;;;;;2.40;2.20;;;19.30;99.90;;;;;;5078290;28;20225;-75
2021/05/31 06:28:21;;;;;;;2.50;2.30;;;19.30;99.90;;;;;;5090169;28;20205;-83
2021/05/31 06:30:49;;;;;;;4.45;2.67;;;19.50;99.90;;;;;;5086500;28;20210;-74
2021/05/31 06:33:18;;;;;;;3.28;2.97;;;19.60;99.90;;;;;;5090328;28;20206;-86
2021/05/31 06:35:45;;;;;;;3.38;2.33;;;19.70;99.90;;;;;;5089556;28;20560;-82
2021/05/31 06:38:13;;;;;;;3.92;2.58;;;19.80;99.90;;;;;;5090190;28;20209;-80
2021/05/31 06:40:40;;;;;;;2.50;2.30;;;19.90;99.90;;;;;;5083594;28;20583;-78
2021/05/31 06:43:06;;;;;;;2.97;2.67;;;19.90;99.90;;;;;;5066984;28;20217;-81
2021/05/31 06:45:33;;;;;;;2.58;2.38;;;20.00;99.90;;;;;;5078880;28;20644;-80
2021/05/31 06:48:04;;;;;;;6.13;2.10;;;20.20;99.90;;;;;;5081069;28;20210;-78
2021/05/31 06:50:32;;;;;;;2.45;2.10;;;20.30;99.90;;;;;;5069110;28;20248;-78
2021/05/31 06:52:59;;;;;;;2.92;2.72;;;20.40;99.90;;;;;;5076466;28;20209;-80
2021/05/31 06:55:29;;;;;;;2.60;2.40;;;20.70;99.90;;;;;;5067905;28;20263;-80
2021/05/31 06:57:56;;;;;;;3.42;2.95;;;20.60;99.90;;;;;;5076955;28;20210;-79
2021/05/31 07:00:24;;;;;;;2.83;2.63;;;20.70;99.90;;;;;;5085888;28;20616;-78
2021/05/31 07:02:50;;;;;;;2.92;2.60;;;20.70;99.90;;;;;;5078673;28;20271;-77
2021/05/31 07:05:19;;;;;;;3.80;2.67;;;20.80;99.90;;;;;;5065507;28;20225;-79
2021/05/31 07:07:46;;;;;;;5.47;2.40;;;20.80;99.90;;;;;;5086144;28;20205;-78
2021/05/31 07:10:14;;;;;;;3.65;2.03;;;20.90;99.90;;;;;;5080686;28;20206;-80
2021/05/31 07:12:41;;;;;;;4.72;2.08;;;21.10;99.90;;;;;;5060166;28;20230;-75
2021/05/31 07:15:11;;;;;;;2.92;2.17;;;21.00;99.90;;;;;;5060389;28;20683;-75
2021/05/31 07:17:39;;;;;;;2.58;2.15;;;21.30;99.90;;;;;;5060074;28;20207;-73
2021/05/31 07:20:08;;;;;;;2.47;2.28;;;21.40;99.90;;;;;;5071435;28;20268;-77
2021/05/31 07:22:36;;;;;;;3.30;2.85;;;21.50;99.90;;;;;;5070210;28;20636;-74
2021/05/31 07:25:04;;;;;;;2.60;2.17;;;21.50;99.90;;;;;;5070882;28;20778;-74
2021/05/31 07:27:31;;;;;;;5.10;2.70;;;21.70;99.90;;;;;;5069778;28;20202;-73
2021/05/31 07:29:57;;;;;;;3.67;2.58;;;21.40;99.90;;;;;;5079381;28;20744;-73
2021/05/31 07:32:25;;;;;;;3.97;2.55;;;21.40;99.90;;;;;;5058946;28;20206;-75
2021/05/31 07:34:52;;;;;;;3.50;2.45;;;21.70;99.90;;;;;;5084357;28;20210;-75
2021/05/31 07:37:18;;;;;;;4.00;2.72;;;21.60;99.90;;;;;;5061633;28;20202;-76
2021/05/31 07:39:47;;;;;;;2.50;2.30;;;21.50;99.90;;;;;;5080724;28;20207;-81
2021/05/31 07:42:13;;;;;;;4.05;2.88;;;22.00;99.90;;;;;;5082615;28;20209;-78
2021/05/31 07:44:40;;;;;;;2.13;1.92;;;22.00;99.90;;;;;;5085504;28;20236;-76
2021/05/31 07:47:06;;;;;;;2.90;2.70;;;22.20;99.90;;;;;;5088650;28;20201;-76
2021/05/31 07:49:33;;;;;;;8.02;3.08;;;22.30;99.90;;;;;;5071470;28;20216;-78
2021/05/31 07:52:08;;;;;;;3.10;2.83;;;23.10;99.90;;;;;;5076263;28;20210;-76
2021/05/31 07:54:35;;;;;;;3.63;2.25;;;24.10;99.90;;;;;;5078805;28;20208;-76
2021/05/31 07:57:03;;;;;;;2.42;2.22;;;24.30;99.90;;;;;;5077996;28;20206;-75
2021/05/31 07:59:30;;;;;;;6.93;2.45;;;24.60;99.90;;;;;;5073962;28;20202;-78
2021/05/31 08:01:56;;;;;;;3.08;2.30;;;24.40;99.90;;;;;;5085011;28;20350;-76
2021/05/31 08:04:23;;;;;;;1.90;1.80;;;24.70;99.90;;;;;;5079488;28;20198;-81
2021/05/31 08:06:49;;;;;;;2.88;2.22;;;24.70;99.90;;;;;;5089608;28;20250;-78
2021/05/31 08:09:16;;;;;;;7.60;2.58;;;26.20;99.90;;;;;;5076102;28;20199;-79
2021/05/31 08:11:42;;;;;;;2.50;2.20;;;26.20;99.90;;;;;;5084326;28;20641;-85
2021/05/31 08:14:10;;;;;;;4.78;3.22;;;27.70;99.90;;;;;;5065053;28;20210;-74
2021/05/31 08:16:36;;;;;;;4.60;2.65;;;26.20;99.90;;;;;;5067025;28;20221;-85
2021/05/31 08:19:03;;;;;;;2.47;2.28;;;25.30;99.90;;;;;;5078256;28;20205;-84
2021/05/31 08:21:29;;;;;;;4.05;2.50;;;24.00;99.90;;;;;;5088713;28;20213;-80
2021/05/31 08:23:56;;;;;;;4.55;2.50;;;23.90;99.90;;;;;;5084521;28;20210;-79
2021/05/31 08:26:23;;;;;;;4.60;2.15;;;24.00;99.90;;;;;;5090392;28;20229;-81
2021/05/31 08:28:49;;;;;;;4.07;2.55;;;23.80;99.90;;;;;;5088803;28;20206;-82
2021/05/31 08:31:17;;;;;;;2.58;2.38;;;23.70;99.90;;;;;;5075796;28;20262;-87
2021/05/31 08:33:44;;;;;;;2.22;2.13;;;24.20;99.90;;;;;;5090842;28;20262;-76
2021/05/31 08:36:11;;;;;;;3.17;2.30;;;24.90;99.90;;;;;;5079615;28;20201;-78
2021/05/31 08:38:37;;;;;;;3.28;2.25;;;24.30;99.90;;;;;;5076887;28;20736;-74
2021/05/31 08:41:04;;;;;;;4.20;2.92;;;24.30;99.90;;;;;;5080053;28;20573;-73
2021/05/31 08:43:30;;;;;;;3.55;2.38;;;24.80;99.90;;;;;;5081764;28;20205;-74
2021/05/31 08:45:57;;;;;;;2.22;2.03;;;24.80;99.90;;;;;;5080026;28;20655;-85
2021/05/31 08:48:27;;;;;;;2.75;2.55;;;24.90;99.90;;;;;;5079309;28;20677;-81
2021/05/31 08:50:54;;;;;;;4.43;2.65;;;24.50;99.90;;;;;;5074849;28;20202;-88
2021/05/31 08:53:21;;;;;;;4.25;2.63;;;24.30;99.90;;;;;;5090563;28;20251;-81
2021/05/31 08:55:49;;;;;;;2.88;2.60;;;24.60;99.90;;;;;;5071412;28;20268;-80
2021/05/31 08:58:15;;;;;;;2.92;2.63;;;24.70;99.90;;;;;;5072551;28;20205;-72
2021/05/31 09:00:42;;;;;;;2.22;2.10;;;24.70;99.90;;;;;;5079112;28;20209;-81
2021/05/31 09:03:10;;;;;;;4.53;2.28;;;25.20;99.90;;;;;;5078112;28;20206;-71
2021/05/31 09:05:40;;;;;;;3.22;3.03;;;25.00;99.90;;;;;;5083101;28;20232;-81
2021/05/31 09:08:08;;;;;;;2.60;2.40;;;24.50;99.90;;;;;;5078472;28;20255;-81
2021/05/31 09:10:43;;;;;;;8.32;2.75;;;25.00;99.90;;;;;;5087637;28;20595;-76
2021/05/31 09:13:10;;;;;;;2.95;2.63;;;25.90;99.90;;;;;;5076633;28;20206;-73
2021/05/31 09:15:38;;;;;;;2.47;2.28;;;26.20;99.90;;;;;;5084394;28;20206;-78
2021/05/31 09:18:05;;;;;;;2.67;2.17;;;26.50;99.90;;;;;;5073353;28;20210;-82
2021/05/31 09:20:32;;;;;;;3.45;2.00;;;26.80;99.90;;;;;;5091871;28;20210;-78
2021/05/31 09:23:00;;;;;;;5.07;2.78;;;27.50;99.90;;;;;;5092425;28;20692;-74
2021/05/31 09:25:30;;;;;;;2.47;2.28;;;26.90;99.90;;;;;;5089768;28;20233;-75
2021/05/31 09:27:57;;;;;;;2.05;1.85;;;26.50;99.90;;;;;;5069244;28;20206;-77
2021/05/31 09:30:39;;;;;;;3.15;2.42;;;27.10;99.90;;;;;;5068824;28;20218;-72
2021/05/31 09:33:11;;;;;;;2.58;2.38;;;28.00;99.90;;;;;;5063044;28;20207;-78
2021/05/31 09:35:42;;;;;;;2.42;2.22;;;27.30;99.90;;;;;;5061617;28;20336;-76
2021/05/31 09:38:13;;;;;;;4.60;2.25;;;26.90;99.90;;;;;;5055003;28;20218;-76
2021/05/31 09:40:50;;;;;;;3.28;2.78;;;26.00;99.90;;;;;;5059960;28;20202;-77
2021/05/31 09:43:17;;;;;;;4.43;2.25;;;26.90;99.90;;;;;;5071178;28;20202;-73
2021/05/31 09:45:47;;;;;;;2.40;2.30;;;26.60;99.90;;;;;;5081137;28;20230;-74
2021/05/31 09:48:15;;;;;;;4.93;2.50;;;26.80;99.90;;;;;;5072817;28;20204;-75
2021/05/31 09:50:41;;;;;;;3.17;2.47;;;27.00;99.90;;;;;;5071790;28;20206;-75
2021/05/31 09:53:11;;;;;;;3.05;1.92;;;27.80;99.90;;;;;;5074710;28;20209;-75
2021/05/31 09:55:39;;;;;;;5.78;2.25;;;29.40;99.90;;;;;;5073608;28;20206;-74
2021/05/31 09:58:10;;;;;;;2.58;2.35;;;29.90;99.90;;;;;;5072375;28;20304;-75
2021/05/31 10:00:38;;;;;;;4.45;2.00;;;30.30;99.90;;;;;;5057791;28;20203;-74
2021/05/31 10:03:23;;;;;;;2.45;2.13;;;29.90;99.90;;;;;;5070003;28;20292;-73
2021/05/31 10:05:58;;;;;;;1.80;1.70;;;28.40;99.90;;;;;;5086972;28;20233;-74
2021/05/31 10:08:43;;;;;;;2.33;2.03;;;29.10;99.90;;;;;;5089853;28;20200;-75
2021/05/31 10:11:11;;;;;;;4.43;2.42;;;29.60;99.90;;;;;;5090111;28;20207;-75
2021/05/31 10:13:40;;;;;;;3.28;2.20;;;30.70;99.90;;;;;;5088140;28;20683;-75
2021/05/31 10:16:09;;;;;;;2.78;2.22;;;31.30;99.90;;;;;;5089939;28;20217;-75
2021/05/31 10:18:40;;;;;;;2.50;2.00;;;30.20;99.90;;;;;;5087795;28;20213;-75
2021/05/31 10:21:08;;;;;;;2.72;1.88;;;31.20;99.90;;;;;;5078516;28;20200;-74
2021/05/31 10:23:36;;;;;;;2.83;2.63;;;32.30;99.90;;;;;;5083556;28;20669;-75
2021/05/31 10:26:04;;;;;;;2.80;2.20;;;32.70;99.90;;;;;;5070189;28;20227;-73
2021/05/31 10:28:34;;;;;;;2.42;2.22;;;33.40;99.90;;;;;;5090474;28;20590;-74
2021/05/31 10:31:03;;;;;;;2.42;2.33;;;32.70;99.90;;;;;;5088661;28;20201;-75
2021/05/31 10:33:30;;;;;;;5.68;2.90;;;31.90;99.90;;;;;;5089483;28;20217;-74
2021/05/31 10:36:07;;;;;;;4.35;2.65;;;29.40;99.90;;;;;;5086563;28;20206;-74
2021/05/31 10:38:38;;;;;;;1.90;1.80;;;28.20;99.90;;;;;;5088294;28;20251;-75
2021/05/31 10:41:12;;;;;;;2.45;2.25;;;27.20;99.90;;;;;;5087759;28;20212;-76
2021/05/31 10:43:44;;;;;;;4.65;2.30;;;27.10;99.90;;;;;;5082357;28;20710;-74
2021/05/31 10:46:15;;;;;;;2.38;2.00;;;27.10;99.90;;;;;;5080214;28;20249;-75
2021/05/31 10:48:43;;;;;;;5.30;2.60;;;27.20;99.90;;;;;;5079084;28;20198;-74
2021/05/31 10:51:16;;;;;;;1.85;1.75;;;26.80;99.90;;;;;;5081750;28;20202;-74
2021/05/31 10:53:44;;;;;;;3.92;2.30;;;27.10;99.90;;;;;;5084764;28;21005;-76
2021/05/31 10:56:12;;;;;;;2.65;2.45;;;27.30;99.90;;;;;;5080245;28;20210;-76
2021/05/31 10:58:41;;;;;;;2.03;1.85;;;26.70;99.90;;;;;;5084446;28;20228;-75
2021/05/31 11:01:09;;;;;;;1.92;1.83;;;26.70;99.90;;;;;;5062627;28;20301;-73
2021/05/31 11:03:46;;;;;;;2.60;2.03;;;27.20;99.90;;;;;;5060624;28;20696;-74
2021/05/31 11:06:16;;;;;;;2.90;2.03;;;27.20;99.90;;;;;;5067047;28;20731;-76
2021/05/31 11:08:52;;;;;;;1.73;1.63;;;27.00;99.90;;;;;;5060053;28;20289;-72
2021/05/31 11:11:30;;;;;;;2.25;1.60;;;26.90;99.90;;;;;;5058358;28;20272;-74
2021/05/31 11:13:57;;;;;;;1.77;1.63;;;26.90;99.90;;;;;;5064587;28;20209;-76
2021/05/31 11:16:24;;;;;;;1.80;1.58;;;27.00;99.90;;;;;;5061466;28;20206;-74
2021/05/31 11:18:56;;;;;;;1.80;1.70;;;26.80;99.90;;;;;;5066305;28;20260;-74
2021/05/31 11:21:32;;;;;;;2.28;1.65;;;27.00;99.90;;;;;;5075286;28;20197;-75
2021/05/31 11:24:03;;;;;;;3.20;1.35;;;27.40;99.90;;;;;;5076202;28;20225;-74
2021/05/31 11:26:32;;;;;;;1.65;1.55;;;27.50;99.90;;;;;;5075191;28;20237;-75
2021/05/31 11:28:58;;;;;;;1.80;1.70;;;27.30;99.90;;;;;;5077423;28;20252;-73
2021/05/31 11:31:26;;;;;;;2.33;2.13;;;27.10;99.90;;;;;;5061566;28;20665;-77
2021/05/31 11:33:54;;;;;;;2.65;1.67;;;27.10;99.90;;;;;;5066840;28;20206;-73
2021/05/31 11:36:32;;;;;;;6.78;1.88;;;27.20;99.90;;;;;;5063997;28;20213;-75
2021/05/31 11:39:06;;;;;;;1.75;1.65;;;27.20;99.90;;;;;;5070945;28;20297;-75
2021/05/31 11:41:36;;;;;;;1.70;1.50;;;27.10;99.90;;;;;;5060957;28;20696;-76
2021/05/31 11:44:02;;;;;;;2.78;1.48;;;27.30;99.90;;;;;;5060356;28;20221;-74
2021/05/31 11:46:29;;;;;;;1.75;1.65;;;27.20;99.90;;;;;;5066631;28;20320;-76
2021/05/31 11:49:05;;;;;;;2.40;2.20;;;27.00;99.90;;;;;;5060568;28;20213;-73
2021/05/31 11:51:32;;;;;;;3.38;1.85;;;27.40;99.90;;;;;;5060843;28;20206;-75
2021/05/31 11:54:00;;;;;;;3.05;1.95;;;27.50;99.90;;;;;;5062960;28;20791;-74
2021/05/31 11:56:34;;;;;;;3.72;2.38;;;27.40;99.90;;;;;;5067288;28;20202;-74
2021/05/31 11:59:01;;;;;;;2.50;2.30;;;27.70;99.90;;;;;;5058775;28;20213;-72
2021/05/31 12:01:29;;;;;;;3.78;2.20;;;28.10;99.90;;;;;;5061385;28;20623;-74
2021/05/31 12:03:55;;;;;;;2.92;2.03;;;28.30;99.90;;;;;;5058360;28;20233;-78
2021/05/31 12:06:22;;;;;;;2.40;1.73;;;28.20;99.90;;;;;;5059346;28;20781;-75
2021/05/31 12:08:51;;;;;;;2.42;2.22;;;28.30;99.90;;;;;;5060436;28;20325;-73
2021/05/31 12:11:21;;;;;;;2.05;1.52;;;28.30;99.90;;;;;;5060168;28;20212;-74
2021/05/31 12:13:48;;;;;;;1.60;1.50;;;28.50;99.90;;;;;;5063685;28;20263;-75
2021/05/31 12:16:15;;;;;;;2.17;1.98;;;28.20;99.90;;;;;;5074436;28;20217;-77
2021/05/31 12:18:43;;;;;;;3.40;2.08;;;28.20;99.90;;;;;;5077890;28;20696;-74
2021/05/31 12:21:10;;;;;;;2.20;2.05;;;28.10;99.90;;;;;;5087025;28;20205;-77
2021/05/31 12:23:36;;;;;;;1.83;1.73;;;28.30;99.90;;;;;;5077392;28;20206;-76
2021/05/31 12:26:05;;;;;;;2.30;2.15;;;28.20;99.90;;;;;;5086567;28;20239;-75
2021/05/31 12:28:34;;;;;;;5.93;2.40;;;28.20;99.90;;;;;;5078512;28;20206;-74
2021/05/31 12:31:01;;;;;;;1.75;1.65;;;28.10;99.90;;;;;;5075357;28;20661;-75
2021/05/31 12:33:28;;;;;;;2.45;2.25;;;28.10;99.90;;;;;;5062262;28;20669;-79
2021/05/31 12:35:55;;;;;;;3.50;2.17;;;28.20;99.90;;;;;;5064549;28;20207;-75
2021/05/31 12:38:23;;;;;;;2.88;1.90;;;28.30;99.90;;;;;;5061391;28;20210;-73
2021/05/31 12:40:51;;;;;;;2.67;2.45;;;28.50;99.90;;;;;;5068682;28;20213;-75
2021/05/31 12:43:29;;;;;;;2.05;1.95;;;28.40;99.90;;;;;;5066262;28;20719;-74
2021/05/31 12:45:57;;;;;;;2.65;2.45;;;28.50;99.90;;;;;;5073496;28;20248;-72
2021/05/31 12:48:24;;;;;;;5.07;2.20;;;28.50;99.90;;;;;;5082473;28;20202;-73
2021/05/31 12:50:52;;;;;;;2.78;2.58;;;28.60;99.90;;;;;;5074891;28;20206;-74
2021/05/31 12:53:18;;;;;;;2.53;2.33;;;28.40;99.90;;;;;;5083179;28;20210;-78
2021/05/31 12:55:46;;;;;;;2.13;1.60;;;28.40;99.90;;;;;;5082177;28;20692;-75
2021/05/31 12:58:15;;;;;;;2.78;2.25;;;28.30;99.90;;;;;;5075043;28;20333;-75